Weymouth, United Kingdom
Current Conditions -  °F | °C
As of 11:50 AM on Friday 31 Oct 2014 (Local Time) from EGDY Reporting Station
Clear Clear  
Wind Chill: 70°   Ceiling: Unl
Heat Index: 70°   Visibility: 6mi
Dew Point: 55°   Wind: 18mph
Humidity: 60%   Direction: 170°S
Pressure: 29.94"   Gusts: 30mph
Location:  50.61°N, 2.45°W
Report Text: EGDY 311150Z AUTO 17016G26KT 9999 NCD 21/13 Q1014
Loading
Personal Weather Stations






























Interactive Weather Map
Tropical Storm Tracking
New forecast layout! Learn more

10-Day Weather Forecast

Advertisements
Track Severe Weather on mobile